CYMA

Mayo Airport

Mayo, , Canada
METAR CYMA 250000Z 19006KT 130V220 20SM FEW050 SCT170 BKN240 12/M07 A2978 RMK SC1AS3CI4 SC TR CLIMAT 12.8/7.7/0.0 SOG TR SLP110 DENSITY ALT 1900FT
Observed Flight Rules
Apr-25 @ 00:00 UTC (38 minutes ago) Visual Flight Rules
Wind Visibility Clouds
190° at 6 knots 20 miles
  • Few at 5,000' AGL
  • Scattered at 17,000' AGL
  • Broken at 24,000' AGL
Temperatures Readings
Current 12°C / 54°F
Dewpoint -7°C / 19°F
Humidity 26%
Altimeter 29.78" Hg
Pressure 1011 hPa
Elevation 504
METAR CYMA 250000Z 19006KT 130V220 20SM FEW050 SCT170 BKN240 12/M07 A2978 RMK SC1AS3CI4 SC TR CLIMAT 12.8/7.7/0.0 SOG TR SLP110 DENSITY ALT 1900FT
Observed Flight Rules
Apr-25 @ 00:00 UTC
(38 minutes ago)
VFR
Wind Visibility
190° at 6 knots 20 miles
Clouds
  • Few at 5,000' AGL
  • Scattered at 17,000' AGL
  • Broken at 24,000' AGL
Temperature Dewpoint
12°C / 54°F -7°C / 19°F
Humidity Altimeter Pressure
26% 29.78" Hg 1011 hPa